sensor_id;sensor_type;location;lat;lon;timestamp;P1;durP1;ratioP1;P2;durP2;ratioP2
11699;SDS011;5906;51.660;6.674;2022-08-19T00:01:40;10.67;;;8.50;;
11699;SDS011;5906;51.660;6.674;2022-08-19T00:04:09;12.63;;;9.53;;
11699;SDS011;5906;51.660;6.674;2022-08-19T00:06:38;13.63;;;9.13;;
11699;SDS011;5906;51.660;6.674;2022-08-19T00:09:07;12.80;;;9.47;;
11699;SDS011;5906;51.660;6.674;2022-08-19T00:11:36;12.87;;;9.60;;
11699;SDS011;5906;51.660;6.674;2022-08-19T00:14:07;12.80;;;9.57;;
11699;SDS011;5906;51.660;6.674;2022-08-19T00:16:36;11.70;;;8.60;;
11699;SDS011;5906;51.660;6.674;2022-08-19T00:19:05;14.13;;;10.23;;
11699;SDS011;5906;51.660;6.674;2022-08-19T00:21:32;12.60;;;9.07;;
11699;SDS011;5906;51.660;6.674;2022-08-19T00:23:58;12.87;;;9.30;;
11699;SDS011;5906;51.660;6.674;2022-08-19T00:26:26;11.07;;;8.70;;
11699;SDS011;5906;51.660;6.674;2022-08-19T00:28:54;13.67;;;8.50;;
11699;SDS011;5906;51.660;6.674;2022-08-19T00:31:21;14.20;;;9.77;;
11699;SDS011;5906;51.660;6.674;2022-08-19T00:33:48;11.23;;;8.67;;
11699;SDS011;5906;51.660;6.674;2022-08-19T00:36:16;15.27;;;9.50;;
11699;SDS011;5906;51.660;6.674;2022-08-19T00:38:43;12.27;;;9.43;;
11699;SDS011;5906;51.660;6.674;2022-08-19T00:41:14;9.53;;;8.07;;
11699;SDS011;5906;51.660;6.674;2022-08-19T00:46:52;12.70;;;8.47;;
11699;SDS011;5906;51.660;6.674;2022-08-19T00:52:31;16.13;;;11.23;;
11699;SDS011;5906;51.660;6.674;2022-08-19T00:54:53;16.23;;;10.97;;
11699;SDS011;5906;51.660;6.674;2022-08-19T00:57:21;14.40;;;10.33;;
11699;SDS011;5906;51.660;6.674;2022-08-19T00:59:52;15.03;;;10.23;;
11699;SDS011;5906;51.660;6.674;2022-08-19T01:02:28;14.93;;;9.40;;
11699;SDS011;5906;51.660;6.674;2022-08-19T01:04:57;15.00;;;10.20;;
11699;SDS011;5906;51.660;6.674;2022-08-19T01:07:27;14.87;;;10.70;;
11699;SDS011;5906;51.660;6.674;2022-08-19T01:10:01;15.10;;;10.30;;
11699;SDS011;5906;51.660;6.674;2022-08-19T01:12:29;16.37;;;9.67;;
11699;SDS011;5906;51.660;6.674;2022-08-19T01:14:56;15.80;;;10.53;;
11699;SDS011;5906;51.660;6.674;2022-08-19T01:17:25;12.87;;;9.60;;
11699;SDS011;5906;51.660;6.674;2022-08-19T01:19:52;13.00;;;9.70;;
11699;SDS011;5906;51.660;6.674;2022-08-19T01:22:26;12.40;;;9.97;;
11699;SDS011;5906;51.660;6.674;2022-08-19T01:24:59;22.07;;;12.03;;
11699;SDS011;5906;51.660;6.674;2022-08-19T01:27:36;16.03;;;10.57;;
11699;SDS011;5906;51.660;6.674;2022-08-19T01:30:10;13.63;;;9.70;;
11699;SDS011;5906;51.660;6.674;2022-08-19T01:32:43;12.07;;;9.30;;
11699;SDS011;5906;51.660;6.674;2022-08-19T01:35:10;13.57;;;9.53;;
11699;SDS011;5906;51.660;6.674;2022-08-19T01:37:45;16.13;;;9.70;;
11699;SDS011;5906;51.660;6.674;2022-08-19T01:40:20;15.70;;;11.10;;
11699;SDS011;5906;51.660;6.674;2022-08-19T01:42:48;13.37;;;10.00;;
11699;SDS011;5906;51.660;6.674;2022-08-19T01:45:16;15.80;;;9.83;;
11699;SDS011;5906;51.660;6.674;2022-08-19T01:47:43;16.63;;;10.90;;
11699;SDS011;5906;51.660;6.674;2022-08-19T01:50:23;14.60;;;10.00;;
11699;SDS011;5906;51.660;6.674;2022-08-19T01:52:50;15.30;;;10.53;;
11699;SDS011;5906;51.660;6.674;2022-08-19T01:55:32;13.67;;;9.87;;
11699;SDS011;5906;51.660;6.674;2022-08-19T01:58:06;14.00;;;9.83;;
11699;SDS011;5906;51.660;6.674;2022-08-19T02:00:43;15.33;;;10.47;;
11699;SDS011;5906;51.660;6.674;2022-08-19T02:03:10;12.97;;;8.40;;
11699;SDS011;5906;51.660;6.674;2022-08-19T02:05:38;13.00;;;9.33;;
11699;SDS011;5906;51.660;6.674;2022-08-19T02:08:05;13.13;;;9.70;;
11699;SDS011;5906;51.660;6.674;2022-08-19T02:10:33;13.23;;;9.63;;
11699;SDS011;5906;51.660;6.674;2022-08-19T02:12:59;15.00;;;9.37;;
11699;SDS011;5906;51.660;6.674;2022-08-19T02:15:26;15.80;;;9.37;;
11699;SDS011;5906;51.660;6.674;2022-08-19T02:17:53;12.70;;;9.40;;
11699;SDS011;5906;51.660;6.674;2022-08-19T02:20:20;17.60;;;9.17;;
11699;SDS011;5906;51.660;6.674;2022-08-19T02:22:46;13.03;;;9.20;;
11699;SDS011;5906;51.660;6.674;2022-08-19T02:25:13;14.10;;;9.63;;
11699;SDS011;5906;51.660;6.674;2022-08-19T02:27:41;13.03;;;9.40;;
11699;SDS011;5906;51.660;6.674;2022-08-19T02:30:11;14.90;;;9.00;;
11699;SDS011;5906;51.660;6.674;2022-08-19T02:32:39;13.30;;;9.80;;
11699;SDS011;5906;51.660;6.674;2022-08-19T02:35:19;13.23;;;8.57;;
11699;SDS011;5906;51.660;6.674;2022-08-19T02:37:46;14.00;;;9.20;;
11699;SDS011;5906;51.660;6.674;2022-08-19T02:40:33;11.67;;;8.80;;
11699;SDS011;5906;51.660;6.674;2022-08-19T02:43:01;11.57;;;9.00;;
11699;SDS011;5906;51.660;6.674;2022-08-19T02:45:35;14.70;;;9.70;;
11699;SDS011;5906;51.660;6.674;2022-08-19T02:48:07;13.33;;;8.70;;
11699;SDS011;5906;51.660;6.674;2022-08-19T02:50:47;13.43;;;9.37;;
11699;SDS011;5906;51.660;6.674;2022-08-19T02:53:18;14.63;;;9.60;;
11699;SDS011;5906;51.660;6.674;2022-08-19T02:55:46;10.80;;;8.47;;
11699;SDS011;5906;51.660;6.674;2022-08-19T02:58:13;11.30;;;8.43;;
11699;SDS011;5906;51.660;6.674;2022-08-19T03:00:45;12.40;;;9.07;;
11699;SDS011;5906;51.660;6.674;2022-08-19T03:03:15;14.50;;;9.33;;
11699;SDS011;5906;51.660;6.674;2022-08-19T03:05:43;12.93;;;9.47;;
11699;SDS011;5906;51.660;6.674;2022-08-19T03:08:22;14.50;;;9.20;;
11699;SDS011;5906;51.660;6.674;2022-08-19T03:10:50;14.37;;;9.63;;
11699;SDS011;5906;51.660;6.674;2022-08-19T03:13:19;11.10;;;8.77;;
11699;SDS011;5906;51.660;6.674;2022-08-19T03:15:47;16.03;;;9.30;;
11699;SDS011;5906;51.660;6.674;2022-08-19T03:18:14;20.17;;;9.03;;
11699;SDS011;5906;51.660;6.674;2022-08-19T03:20:44;10.53;;;8.53;;
11699;SDS011;5906;51.660;6.674;2022-08-19T03:23:13;17.67;;;8.47;;
11699;SDS011;5906;51.660;6.674;2022-08-19T03:25:42;12.70;;;8.70;;
11699;SDS011;5906;51.660;6.674;2022-08-19T03:28:23;12.77;;;8.73;;
11699;SDS011;5906;51.660;6.674;2022-08-19T03:31:00;12.17;;;8.47;;
11699;SDS011;5906;51.660;6.674;2022-08-19T03:33:50;14.43;;;8.70;;
11699;SDS011;5906;51.660;6.674;2022-08-19T03:36:18;13.03;;;8.37;;
11699;SDS011;5906;51.660;6.674;2022-08-19T03:38:48;13.73;;;9.37;;
11699;SDS011;5906;51.660;6.674;2022-08-19T03:41:26;10.97;;;8.60;;
11699;SDS011;5906;51.660;6.674;2022-08-19T03:44:14;10.90;;;8.30;;
11699;SDS011;5906;51.660;6.674;2022-08-19T03:46:48;11.30;;;8.70;;
11699;SDS011;5906;51.660;6.674;2022-08-19T03:49:18;11.97;;;8.30;;
11699;SDS011;5906;51.660;6.674;2022-08-19T03:51:53;12.23;;;8.33;;
11699;SDS011;5906;51.660;6.674;2022-08-19T03:54:21;11.20;;;8.10;;
11699;SDS011;5906;51.660;6.674;2022-08-19T03:56:50;11.40;;;7.90;;
11699;SDS011;5906;51.660;6.674;2022-08-19T03:59:20;12.17;;;8.73;;
11699;SDS011;5906;51.660;6.674;2022-08-19T04:01:55;9.80;;;7.57;;
11699;SDS011;5906;51.660;6.674;2022-08-19T04:04:23;15.13;;;9.33;;
11699;SDS011;5906;51.660;6.674;2022-08-19T04:06:54;14.20;;;9.13;;
11699;SDS011;5906;51.660;6.674;2022-08-19T04:09:22;12.40;;;9.07;;
11699;SDS011;5906;51.660;6.674;2022-08-19T04:11:51;11.90;;;8.50;;
11699;SDS011;5906;51.660;6.674;2022-08-19T04:14:23;11.10;;;8.40;;
11699;SDS011;5906;51.660;6.674;2022-08-19T04:16:56;13.27;;;9.23;;
11699;SDS011;5906;51.660;6.674;2022-08-19T04:19:24;16.47;;;9.90;;
11699;SDS011;5906;51.660;6.674;2022-08-19T04:21:53;12.93;;;9.40;;
11699;SDS011;5906;51.660;6.674;2022-08-19T04:24:20;12.00;;;9.10;;
11699;SDS011;5906;51.660;6.674;2022-08-19T04:26:48;16.57;;;9.63;;
11699;SDS011;5906;51.660;6.674;2022-08-19T04:29:17;20.10;;;10.13;;
11699;SDS011;5906;51.660;6.674;2022-08-19T04:31:47;11.87;;;9.17;;
11699;SDS011;5906;51.660;6.674;2022-08-19T04:34:16;15.10;;;9.70;;
11699;SDS011;5906;51.660;6.674;2022-08-19T04:36:48;12.53;;;8.50;;
11699;SDS011;5906;51.660;6.674;2022-08-19T04:39:18;12.17;;;8.83;;
11699;SDS011;5906;51.660;6.674;2022-08-19T04:41:47;14.67;;;9.30;;
11699;SDS011;5906;51.660;6.674;2022-08-19T04:44:33;12.57;;;9.00;;
11699;SDS011;5906;51.660;6.674;2022-08-19T04:47:10;19.43;;;8.53;;
11699;SDS011;5906;51.660;6.674;2022-08-19T04:49:36;14.10;;;9.03;;
11699;SDS011;5906;51.660;6.674;2022-08-19T04:52:03;16.10;;;9.33;;
11699;SDS011;5906;51.660;6.674;2022-08-19T04:54:30;13.57;;;9.43;;
11699;SDS011;5906;51.660;6.674;2022-08-19T04:57:04;15.17;;;9.60;;
11699;SDS011;5906;51.660;6.674;2022-08-19T04:59:37;13.93;;;9.83;;
11699;SDS011;5906;51.660;6.674;2022-08-19T05:02:05;13.57;;;8.83;;
11699;SDS011;5906;51.660;6.674;2022-08-19T05:04:35;16.67;;;9.50;;
11699;SDS011;5906;51.660;6.674;2022-08-19T05:07:05;13.93;;;10.07;;
11699;SDS011;5906;51.660;6.674;2022-08-19T05:09:34;15.33;;;9.70;;
11699;SDS011;5906;51.660;6.674;2022-08-19T05:12:20;14.40;;;9.37;;
11699;SDS011;5906;51.660;6.674;2022-08-19T05:14:54;12.37;;;9.23;;
11699;SDS011;5906;51.660;6.674;2022-08-19T05:17:22;14.90;;;9.63;;
11699;SDS011;5906;51.660;6.674;2022-08-19T05:19:53;24.00;;;9.73;;
11699;SDS011;5906;51.660;6.674;2022-08-19T05:22:39;13.90;;;10.07;;
11699;SDS011;5906;51.660;6.674;2022-08-19T05:25:08;15.50;;;10.00;;
11699;SDS011;5906;51.660;6.674;2022-08-19T05:27:39;15.50;;;10.13;;
11699;SDS011;5906;51.660;6.674;2022-08-19T05:30:08;13.80;;;9.80;;
11699;SDS011;5906;51.660;6.674;2022-08-19T05:32:36;17.17;;;11.27;;
11699;SDS011;5906;51.660;6.674;2022-08-19T05:35:04;14.97;;;10.23;;
11699;SDS011;5906;51.660;6.674;2022-08-19T05:37:32;16.33;;;10.83;;
11699;SDS011;5906;51.660;6.674;2022-08-19T05:39:59;14.03;;;10.60;;
11699;SDS011;5906;51.660;6.674;2022-08-19T05:42:26;12.97;;;9.83;;
11699;SDS011;5906;51.660;6.674;2022-08-19T05:44:53;15.03;;;10.10;;
11699;SDS011;5906;51.660;6.674;2022-08-19T05:47:20;15.03;;;10.50;;
11699;SDS011;5906;51.660;6.674;2022-08-19T05:49:47;19.63;;;11.23;;
11699;SDS011;5906;51.660;6.674;2022-08-19T05:52:15;17.10;;;12.33;;
11699;SDS011;5906;51.660;6.674;2022-08-19T05:54:44;19.40;;;12.97;;
11699;SDS011;5906;51.660;6.674;2022-08-19T05:57:17;16.73;;;11.37;;
11699;SDS011;5906;51.660;6.674;2022-08-19T05:59:44;17.70;;;12.50;;
11699;SDS011;5906;51.660;6.674;2022-08-19T06:02:27;19.43;;;13.63;;
11699;SDS011;5906;51.660;6.674;2022-08-19T06:04:56;18.20;;;12.70;;
11699;SDS011;5906;51.660;6.674;2022-08-19T06:07:23;17.87;;;12.80;;
11699;SDS011;5906;51.660;6.674;2022-08-19T06:09:50;18.20;;;13.33;;
11699;SDS011;5906;51.660;6.674;2022-08-19T06:12:29;21.40;;;12.50;;
11699;SDS011;5906;51.660;6.674;2022-08-19T06:15:02;16.10;;;11.53;;
11699;SDS011;5906;51.660;6.674;2022-08-19T06:17:34;19.70;;;13.27;;
11699;SDS011;5906;51.660;6.674;2022-08-19T06:20:05;20.53;;;12.50;;
11699;SDS011;5906;51.660;6.674;2022-08-19T06:22:41;21.07;;;14.63;;
11699;SDS011;5906;51.660;6.674;2022-08-19T06:25:10;21.53;;;14.10;;
11699;SDS011;5906;51.660;6.674;2022-08-19T06:27:38;20.17;;;14.07;;
11699;SDS011;5906;51.660;6.674;2022-08-19T06:30:25;20.47;;;13.97;;
11699;SDS011;5906;51.660;6.674;2022-08-19T06:32:52;21.50;;;13.30;;
11699;SDS011;5906;51.660;6.674;2022-08-19T06:35:19;29.17;;;14.03;;
11699;SDS011;5906;51.660;6.674;2022-08-19T06:37:46;21.03;;;13.37;;
11699;SDS011;5906;51.660;6.674;2022-08-19T06:40:13;24.50;;;14.43;;
11699;SDS011;5906;51.660;6.674;2022-08-19T06:42:40;20.50;;;13.77;;
11699;SDS011;5906;51.660;6.674;2022-08-19T06:45:21;20.57;;;14.07;;
11699;SDS011;5906;51.660;6.674;2022-08-19T06:47:59;30.63;;;15.43;;
11699;SDS011;5906;51.660;6.674;2022-08-19T06:50:26;27.93;;;17.73;;
11699;SDS011;5906;51.660;6.674;2022-08-19T06:52:53;26.40;;;17.07;;
11699;SDS011;5906;51.660;6.674;2022-08-19T06:55:20;33.17;;;18.57;;
11699;SDS011;5906;51.660;6.674;2022-08-19T06:57:47;30.83;;;19.70;;
11699;SDS011;5906;51.660;6.674;2022-08-19T07:00:14;31.00;;;19.63;;
11699;SDS011;5906;51.660;6.674;2022-08-19T07:02:42;35.00;;;19.57;;
11699;SDS011;5906;51.660;6.674;2022-08-19T07:05:21;36.23;;;21.53;;
11699;SDS011;5906;51.660;6.674;2022-08-19T07:07:48;28.00;;;20.13;;
11699;SDS011;5906;51.660;6.674;2022-08-19T07:10:16;37.63;;;21.70;;
11699;SDS011;5906;51.660;6.674;2022-08-19T07:12:43;32.53;;;21.10;;
11699;SDS011;5906;51.660;6.674;2022-08-19T07:15:10;43.33;;;23.20;;
11699;SDS011;5906;51.660;6.674;2022-08-19T07:17:39;36.40;;;21.80;;
11699;SDS011;5906;51.660;6.674;2022-08-19T07:20:07;40.33;;;24.50;;
11699;SDS011;5906;51.660;6.674;2022-08-19T07:22:38;35.20;;;22.63;;
11699;SDS011;5906;51.660;6.674;2022-08-19T07:25:07;41.07;;;23.27;;
11699;SDS011;5906;51.660;6.674;2022-08-19T07:27:35;38.33;;;22.23;;
11699;SDS011;5906;51.660;6.674;2022-08-19T07:30:05;37.70;;;23.47;;
11699;SDS011;5906;51.660;6.674;2022-08-19T07:32:37;36.10;;;22.60;;
11699;SDS011;5906;51.660;6.674;2022-08-19T07:35:04;35.57;;;22.17;;
11699;SDS011;5906;51.660;6.674;2022-08-19T07:37:32;33.57;;;21.30;;
11699;SDS011;5906;51.660;6.674;2022-08-19T07:40:01;33.57;;;21.83;;
11699;SDS011;5906;51.660;6.674;2022-08-19T07:42:33;36.63;;;22.93;;
11699;SDS011;5906;51.660;6.674;2022-08-19T07:44:59;34.87;;;20.13;;
11699;SDS011;5906;51.660;6.674;2022-08-19T07:47:26;37.40;;;21.60;;
11699;SDS011;5906;51.660;6.674;2022-08-19T07:50:14;33.37;;;20.07;;
11699;SDS011;5906;51.660;6.674;2022-08-19T07:52:41;33.07;;;20.60;;
11699;SDS011;5906;51.660;6.674;2022-08-19T07:55:14;37.17;;;21.97;;
11699;SDS011;5906;51.660;6.674;2022-08-19T07:58:02;36.73;;;20.30;;
11699;SDS011;5906;51.660;6.674;2022-08-19T08:00:31;31.17;;;20.83;;
11699;SDS011;5906;51.660;6.674;2022-08-19T08:02:58;34.30;;;21.73;;
11699;SDS011;5906;51.660;6.674;2022-08-19T08:05:25;32.33;;;20.83;;
11699;SDS011;5906;51.660;6.674;2022-08-19T08:08:11;34.57;;;21.20;;
11699;SDS011;5906;51.660;6.674;2022-08-19T08:10:57;31.67;;;20.80;;
11699;SDS011;5906;51.660;6.674;2022-08-19T08:13:25;29.97;;;19.43;;
11699;SDS011;5906;51.660;6.674;2022-08-19T08:15:53;31.97;;;19.97;;
11699;SDS011;5906;51.660;6.674;2022-08-19T08:18:22;30.63;;;18.80;;
11699;SDS011;5906;51.660;6.674;2022-08-19T08:20:53;26.90;;;18.10;;
11699;SDS011;5906;51.660;6.674;2022-08-19T08:23:21;29.73;;;19.20;;
11699;SDS011;5906;51.660;6.674;2022-08-19T08:25:49;31.33;;;18.27;;
11699;SDS011;5906;51.660;6.674;2022-08-19T08:28:16;24.33;;;16.90;;
11699;SDS011;5906;51.660;6.674;2022-08-19T08:30:44;25.00;;;16.87;;
11699;SDS011;5906;51.660;6.674;2022-08-19T08:33:18;27.47;;;18.47;;
11699;SDS011;5906;51.660;6.674;2022-08-19T08:36:07;29.73;;;19.07;;
11699;SDS011;5906;51.660;6.674;2022-08-19T08:38:34;28.33;;;18.33;;
11699;SDS011;5906;51.660;6.674;2022-08-19T08:44:10;24.00;;;15.97;;
11699;SDS011;5906;51.660;6.674;2022-08-19T08:46:49;25.97;;;16.57;;
11699;SDS011;5906;51.660;6.674;2022-08-19T08:49:41;26.40;;;17.07;;
11699;SDS011;5906;51.660;6.674;2022-08-19T08:52:27;25.33;;;16.73;;
11699;SDS011;5906;51.660;6.674;2022-08-19T08:54:59;26.23;;;16.40;;
11699;SDS011;5906;51.660;6.674;2022-08-19T09:00:32;26.23;;;16.90;;
11699;SDS011;5906;51.660;6.674;2022-08-19T09:03:01;21.20;;;14.47;;
11699;SDS011;5906;51.660;6.674;2022-08-19T09:05:32;21.03;;;13.13;;
11699;SDS011;5906;51.660;6.674;2022-08-19T09:08:19;23.93;;;14.10;;
11699;SDS011;5906;51.660;6.674;2022-08-19T09:17:15;23.83;;;15.57;;
11699;SDS011;5906;51.660;6.674;2022-08-19T09:19:52;22.73;;;15.10;;
11699;SDS011;5906;51.660;6.674;2022-08-19T09:22:37;30.10;;;16.20;;
11699;SDS011;5906;51.660;6.674;2022-08-19T09:25:07;24.33;;;15.33;;
11699;SDS011;5906;51.660;6.674;2022-08-19T09:27:36;22.67;;;14.87;;
11699;SDS011;5906;51.660;6.674;2022-08-19T09:30:31;24.10;;;13.20;;
11699;SDS011;5906;51.660;6.674;2022-08-19T09:32:58;20.77;;;13.80;;
11699;SDS011;5906;51.660;6.674;2022-08-19T09:35:26;23.23;;;15.83;;
11699;SDS011;5906;51.660;6.674;2022-08-19T09:37:56;22.03;;;13.30;;
11699;SDS011;5906;51.660;6.674;2022-08-19T09:40:26;18.80;;;13.50;;
11699;SDS011;5906;51.660;6.674;2022-08-19T09:42:55;19.47;;;14.60;;
11699;SDS011;5906;51.660;6.674;2022-08-19T09:45:23;23.50;;;14.50;;
11699;SDS011;5906;51.660;6.674;2022-08-19T09:47:51;24.27;;;16.20;;
11699;SDS011;5906;51.660;6.674;2022-08-19T09:50:21;24.03;;;15.30;;
11699;SDS011;5906;51.660;6.674;2022-08-19T09:52:49;21.27;;;13.33;;
11699;SDS011;5906;51.660;6.674;2022-08-19T09:55:22;18.80;;;13.60;;
11699;SDS011;5906;51.660;6.674;2022-08-19T09:57:49;25.50;;;15.73;;
11699;SDS011;5906;51.660;6.674;2022-08-19T10:00:16;23.47;;;15.63;;
11699;SDS011;5906;51.660;6.674;2022-08-19T10:02:42;26.17;;;17.20;;
11699;SDS011;5906;51.660;6.674;2022-08-19T10:05:11;30.60;;;18.47;;
11699;SDS011;5906;51.660;6.674;2022-08-19T10:07:56;26.70;;;17.43;;
11699;SDS011;5906;51.660;6.674;2022-08-19T10:10:23;25.13;;;17.27;;
11699;SDS011;5906;51.660;6.674;2022-08-19T10:12:50;28.13;;;17.50;;
11699;SDS011;5906;51.660;6.674;2022-08-19T10:15:17;23.10;;;16.30;;
11699;SDS011;5906;51.660;6.674;2022-08-19T10:17:54;29.23;;;18.97;;
11699;SDS011;5906;51.660;6.674;2022-08-19T10:20:23;28.37;;;16.33;;
11699;SDS011;5906;51.660;6.674;2022-08-19T10:22:51;29.77;;;20.13;;
11699;SDS011;5906;51.660;6.674;2022-08-19T10:25:18;30.13;;;18.30;;
11699;SDS011;5906;51.660;6.674;2022-08-19T10:27:45;32.37;;;18.17;;
11699;SDS011;5906;51.660;6.674;2022-08-19T10:30:16;27.47;;;15.23;;
11699;SDS011;5906;51.660;6.674;2022-08-19T10:32:45;25.60;;;16.50;;
11699;SDS011;5906;51.660;6.674;2022-08-19T10:35:12;23.60;;;15.10;;
11699;SDS011;5906;51.660;6.674;2022-08-19T10:37:47;18.03;;;13.50;;
11699;SDS011;5906;51.660;6.674;2022-08-19T10:40:23;22.37;;;14.93;;
11699;SDS011;5906;51.660;6.674;2022-08-19T10:42:50;22.37;;;13.73;;
11699;SDS011;5906;51.660;6.674;2022-08-19T10:45:16;19.07;;;11.87;;
11699;SDS011;5906;51.660;6.674;2022-08-19T10:47:43;22.50;;;13.73;;
11699;SDS011;5906;51.660;6.674;2022-08-19T10:50:10;17.57;;;13.20;;
11699;SDS011;5906;51.660;6.674;2022-08-19T10:52:55;19.63;;;12.63;;
11699;SDS011;5906;51.660;6.674;2022-08-19T10:55:23;17.17;;;11.80;;
11699;SDS011;5906;51.660;6.674;2022-08-19T10:58:17;18.80;;;12.40;;
11699;SDS011;5906;51.660;6.674;2022-08-19T11:00:52;15.70;;;11.20;;
11699;SDS011;5906;51.660;6.674;2022-08-19T11:03:24;16.90;;;10.60;;
11699;SDS011;5906;51.660;6.674;2022-08-19T11:06:00;14.43;;;9.60;;
11699;SDS011;5906;51.660;6.674;2022-08-19T11:08:28;14.70;;;10.57;;
11699;SDS011;5906;51.660;6.674;2022-08-19T11:10:58;10.60;;;8.07;;
11699;SDS011;5906;51.660;6.674;2022-08-19T11:13:27;11.83;;;9.07;;
11699;SDS011;5906;51.660;6.674;2022-08-19T11:15:56;10.13;;;6.40;;
11699;SDS011;5906;51.660;6.674;2022-08-19T11:18:27;9.90;;;7.50;;
11699;SDS011;5906;51.660;6.674;2022-08-19T11:20:54;12.80;;;7.00;;
11699;SDS011;5906;51.660;6.674;2022-08-19T11:23:31;6.47;;;5.43;;
11699;SDS011;5906;51.660;6.674;2022-08-19T11:25:57;7.20;;;4.50;;
11699;SDS011;5906;51.660;6.674;2022-08-19T11:28:25;8.63;;;6.73;;
11699;SDS011;5906;51.660;6.674;2022-08-19T11:30:52;8.77;;;5.40;;
11699;SDS011;5906;51.660;6.674;2022-08-19T11:33:19;8.73;;;6.10;;
11699;SDS011;5906;51.660;6.674;2022-08-19T11:35:45;9.00;;;5.70;;
11699;SDS011;5906;51.660;6.674;2022-08-19T11:38:12;7.20;;;4.50;;
11699;SDS011;5906;51.660;6.674;2022-08-19T11:40:40;5.07;;;3.97;;
11699;SDS011;5906;51.660;6.674;2022-08-19T11:43:08;7.87;;;5.43;;
11699;SDS011;5906;51.660;6.674;2022-08-19T11:45:36;11.50;;;8.10;;
11699;SDS011;5906;51.660;6.674;2022-08-19T11:48:02;18.00;;;7.50;;
11699;SDS011;5906;51.660;6.674;2022-08-19T11:50:29;9.90;;;6.57;;
11699;SDS011;5906;51.660;6.674;2022-08-19T11:52:56;10.90;;;7.10;;
11699;SDS011;5906;51.660;6.674;2022-08-19T11:55:23;21.63;;;6.63;;
11699;SDS011;5906;51.660;6.674;2022-08-19T11:57:50;10.67;;;6.57;;
11699;SDS011;5906;51.660;6.674;2022-08-19T12:00:17;9.60;;;6.23;;
11699;SDS011;5906;51.660;6.674;2022-08-19T12:02:44;9.63;;;5.53;;
11699;SDS011;5906;51.660;6.674;2022-08-19T12:05:11;6.20;;;4.95;;
11699;SDS011;5906;51.660;6.674;2022-08-19T12:07:39;7.97;;;6.38;;
11699;SDS011;5906;51.660;6.674;2022-08-19T12:10:08;7.07;;;6.23;;
11699;SDS011;5906;51.660;6.674;2022-08-19T12:12:36;11.07;;;6.07;;
11699;SDS011;5906;51.660;6.674;2022-08-19T12:15:09;10.70;;;5.40;;
11699;SDS011;5906;51.660;6.674;2022-08-19T12:17:37;11.57;;;6.30;;
11699;SDS011;5906;51.660;6.674;2022-08-19T12:20:04;6.30;;;5.10;;
11699;SDS011;5906;51.660;6.674;2022-08-19T12:22:32;6.90;;;5.63;;
11699;SDS011;5906;51.660;6.674;2022-08-19T12:24:59;7.80;;;5.70;;
11699;SDS011;5906;51.660;6.674;2022-08-19T12:27:26;7.50;;;5.37;;
11699;SDS011;5906;51.660;6.674;2022-08-19T12:30:07;7.17;;;5.70;;
11699;SDS011;5906;51.660;6.674;2022-08-19T12:32:36;12.80;;;6.10;;
11699;SDS011;5906;51.660;6.674;2022-08-19T12:35:04;8.20;;;5.53;;
11699;SDS011;5906;51.660;6.674;2022-08-19T12:37:31;7.67;;;5.00;;
11699;SDS011;5906;51.660;6.674;2022-08-19T12:39:58;8.07;;;4.90;;
11699;SDS011;5906;51.660;6.674;2022-08-19T12:42:25;9.20;;;6.10;;
11699;SDS011;5906;51.660;6.674;2022-08-19T12:44:51;6.70;;;5.30;;
11699;SDS011;5906;51.660;6.674;2022-08-19T12:47:19;5.40;;;4.90;;
11699;SDS011;5906;51.660;6.674;2022-08-19T12:49:46;5.80;;;5.20;;
11699;SDS011;5906;51.660;6.674;2022-08-19T12:52:21;6.93;;;5.40;;
11699;SDS011;5906;51.660;6.674;2022-08-19T12:54:53;6.97;;;5.00;;
11699;SDS011;5906;51.660;6.674;2022-08-19T12:57:22;10.57;;;6.90;;
11699;SDS011;5906;51.660;6.674;2022-08-19T12:59:59;8.40;;;6.90;;
11699;SDS011;5906;51.660;6.674;2022-08-19T13:02:31;9.13;;;6.70;;
11699;SDS011;5906;51.660;6.674;2022-08-19T13:05:04;8.10;;;7.00;;
11699;SDS011;5906;51.660;6.674;2022-08-19T13:07:32;10.33;;;7.23;;
11699;SDS011;5906;51.660;6.674;2022-08-19T13:09:59;8.93;;;7.30;;
11699;SDS011;5906;51.660;6.674;2022-08-19T13:12:26;13.93;;;8.73;;
11699;SDS011;5906;51.660;6.674;2022-08-19T13:14:54;12.00;;;9.50;;
11699;SDS011;5906;51.660;6.674;2022-08-19T13:17:21;14.77;;;10.63;;
11699;SDS011;5906;51.660;6.674;2022-08-19T13:19:49;12.63;;;9.47;;
11699;SDS011;5906;51.660;6.674;2022-08-19T13:22:16;15.63;;;10.10;;
11699;SDS011;5906;51.660;6.674;2022-08-19T13:24:43;13.47;;;9.87;;
11699;SDS011;5906;51.660;6.674;2022-08-19T13:27:12;12.47;;;10.03;;
11699;SDS011;5906;51.660;6.674;2022-08-19T13:29:40;16.70;;;9.67;;
11699;SDS011;5906;51.660;6.674;2022-08-19T13:32:26;13.13;;;10.47;;
11699;SDS011;5906;51.660;6.674;2022-08-19T13:35:14;12.57;;;10.23;;
11699;SDS011;5906;51.660;6.674;2022-08-19T13:37:42;17.53;;;10.03;;
11699;SDS011;5906;51.660;6.674;2022-08-19T13:40:14;13.07;;;10.70;;
11699;SDS011;5906;51.660;6.674;2022-08-19T13:42:45;14.10;;;9.60;;
11699;SDS011;5906;51.660;6.674;2022-08-19T13:45:14;10.40;;;9.27;;
11699;SDS011;5906;51.660;6.674;2022-08-19T13:47:45;11.03;;;8.77;;
11699;SDS011;5906;51.660;6.674;2022-08-19T13:50:14;13.43;;;9.27;;
11699;SDS011;5906;51.660;6.674;2022-08-19T13:52:43;17.33;;;10.10;;
11699;SDS011;5906;51.660;6.674;2022-08-19T13:55:10;16.20;;;8.80;;
11699;SDS011;5906;51.660;6.674;2022-08-19T13:57:38;16.90;;;10.43;;
11699;SDS011;5906;51.660;6.674;2022-08-19T14:00:15;13.37;;;9.23;;
11699;SDS011;5906;51.660;6.674;2022-08-19T14:02:46;12.30;;;7.57;;
11699;SDS011;5906;51.660;6.674;2022-08-19T14:05:14;13.53;;;9.70;;
11699;SDS011;5906;51.660;6.674;2022-08-19T14:07:42;11.60;;;9.07;;
11699;SDS011;5906;51.660;6.674;2022-08-19T14:10:09;13.60;;;9.00;;
11699;SDS011;5906;51.660;6.674;2022-08-19T14:12:37;18.20;;;9.67;;
11699;SDS011;5906;51.660;6.674;2022-08-19T14:15:05;10.73;;;8.87;;
11699;SDS011;5906;51.660;6.674;2022-08-19T14:17:34;11.47;;;8.23;;
11699;SDS011;5906;51.660;6.674;2022-08-19T14:20:03;10.93;;;7.43;;
11699;SDS011;5906;51.660;6.674;2022-08-19T14:22:37;9.23;;;6.90;;
11699;SDS011;5906;51.660;6.674;2022-08-19T14:25:06;12.27;;;7.20;;
11699;SDS011;5906;51.660;6.674;2022-08-19T14:27:35;11.93;;;8.13;;
11699;SDS011;5906;51.660;6.674;2022-08-19T14:30:03;12.70;;;8.60;;
11699;SDS011;5906;51.660;6.674;2022-08-19T14:32:33;11.00;;;8.70;;
11699;SDS011;5906;51.660;6.674;2022-08-19T14:35:01;12.20;;;7.77;;
11699;SDS011;5906;51.660;6.674;2022-08-19T14:37:28;13.77;;;9.23;;
11699;SDS011;5906;51.660;6.674;2022-08-19T14:39:55;11.90;;;8.50;;
11699;SDS011;5906;51.660;6.674;2022-08-19T14:42:21;15.67;;;9.57;;
11699;SDS011;5906;51.660;6.674;2022-08-19T14:44:48;16.67;;;10.10;;
11699;SDS011;5906;51.660;6.674;2022-08-19T14:47:15;18.23;;;11.27;;
11699;SDS011;5906;51.660;6.674;2022-08-19T14:49:42;14.57;;;9.73;;
11699;SDS011;5906;51.660;6.674;2022-08-19T14:52:13;14.53;;;9.20;;
11699;SDS011;5906;51.660;6.674;2022-08-19T14:54:40;11.77;;;9.07;;
11699;SDS011;5906;51.660;6.674;2022-08-19T14:57:07;19.07;;;10.67;;
11699;SDS011;5906;51.660;6.674;2022-08-19T14:59:38;14.40;;;8.70;;
11699;SDS011;5906;51.660;6.674;2022-08-19T15:02:05;11.53;;;8.20;;
11699;SDS011;5906;51.660;6.674;2022-08-19T15:04:52;15.93;;;9.37;;
11699;SDS011;5906;51.660;6.674;2022-08-19T15:07:24;10.70;;;7.57;;
11699;SDS011;5906;51.660;6.674;2022-08-19T15:09:54;20.53;;;9.97;;
11699;SDS011;5906;51.660;6.674;2022-08-19T15:12:21;14.50;;;9.47;;
11699;SDS011;5906;51.660;6.674;2022-08-19T15:14:48;14.80;;;9.90;;
11699;SDS011;5906;51.660;6.674;2022-08-19T15:17:21;15.93;;;10.70;;
11699;SDS011;5906;51.660;6.674;2022-08-19T15:20:08;16.63;;;9.67;;
11699;SDS011;5906;51.660;6.674;2022-08-19T15:22:36;12.00;;;8.47;;